Time;durP1;ratioP1;P1;durP2;ratioP2;P2;SDS_P1;SDS_P2;PMS_P1;PMS_P2;Temp;Humidity;BMP_temperature;BMP_pressure;BME280_temperature;BME280_humidity;BME280_pressure;Samples;Min_cycle;Max_cycle;Signal;HPM_P1;HPM_P2
2024/03/14 00:00:23;;;;;;;14.15;5.65;;;9.60;99.90;;;;;;5114179;27;20046;-82
2024/03/14 00:02:52;;;;;;;12.07;6.22;;;9.60;99.90;;;;;;5095851;27;20067;-82
2024/03/14 00:05:21;;;;;;;14.80;6.22;;;9.60;99.90;;;;;;5111366;27;20051;-81
2024/03/14 00:07:50;;;;;;;12.07;5.95;;;9.60;99.90;;;;;;5107578;27;20047;-80
2024/03/14 00:10:18;;;;;;;11.65;5.55;;;9.60;99.90;;;;;;5108571;27;20053;-84
2024/03/14 00:12:47;;;;;;;9.73;5.43;;;9.60;99.90;;;;;;5113796;27;20515;-82
2024/03/14 00:15:15;;;;;;;12.63;6.55;;;9.60;99.90;;;;;;5123921;27;20057;-81
2024/03/14 00:17:45;;;;;;;12.15;6.50;;;9.60;99.90;;;;;;5113657;27;20063;-83
2024/03/14 00:20:14;;;;;;;13.93;6.82;;;9.60;99.90;;;;;;5102452;27;20043;-83
2024/03/14 00:22:43;;;;;;;14.27;7.38;;;9.60;99.90;;;;;;5097151;27;20463;-83
2024/03/14 00:25:12;;;;;;;14.10;6.85;;;9.60;99.90;;;;;;5104096;27;20494;-81
2024/03/14 00:27:43;;;;;;;13.07;6.90;;;9.50;99.90;;;;;;5088586;27;20055;-80
2024/03/14 00:30:14;;;;;;;12.85;6.55;;;9.60;99.90;;;;;;5124841;27;20413;-82
2024/03/14 00:32:44;;;;;;;17.00;7.45;;;9.60;99.90;;;;;;5100556;27;20066;-81
2024/03/14 00:35:13;;;;;;;17.38;7.32;;;9.60;99.90;;;;;;5093919;27;20050;-83
2024/03/14 00:37:43;;;;;;;27.80;12.75;;;9.60;99.90;;;;;;5089712;27;20039;-82
2024/03/14 00:40:13;;;;;;;50.90;22.52;;;9.60;99.90;;;;;;5113991;27;20067;-83
2024/03/14 00:42:46;;;;;;;45.88;20.10;;;9.50;99.90;;;;;;5107339;27;20043;-83
2024/03/14 00:45:15;;;;;;;;;;;9.50;99.90;;;;;;5103666;27;20046;-83
2024/03/14 00:47:43;;;;;;;32.63;14.38;;;9.50;99.90;;;;;;5122857;27;19922;-82
2024/03/14 00:50:13;;;;;;;21.90;9.98;;;9.50;99.90;;;;;;5104326;27;20035;-82
2024/03/14 00:52:42;;;;;;;20.00;8.60;;;9.50;99.90;;;;;;5122269;27;20035;-84
2024/03/14 00:55:10;;;;;;;14.63;6.70;;;9.50;99.90;;;;;;5091191;27;20035;-82
2024/03/14 00:57:39;;;;;;;12.48;6.75;;;9.50;99.90;;;;;;5110576;27;20111;-83
2024/03/14 01:00:11;;;;;;;13.70;6.57;;;9.50;99.90;;;;;;5103829;27;20047;-81
2024/03/14 01:02:42;;;;;;;12.35;6.20;;;9.40;99.90;;;;;;5122230;27;20062;-82
2024/03/14 01:05:11;;;;;;;13.45;6.85;;;9.50;99.90;;;;;;5107072;27;20103;-83
2024/03/14 01:07:40;;;;;;;14.70;7.30;;;9.50;99.90;;;;;;5104161;27;20043;-81
2024/03/14 01:10:09;;;;;;;13.52;7.00;;;9.50;99.90;;;;;;5110094;27;20084;-84
2024/03/14 01:12:38;;;;;;;15.50;6.55;;;9.40;99.90;;;;;;5125995;27;20405;-84
2024/03/14 01:15:07;;;;;;;13.68;6.80;;;9.50;99.90;;;;;;5111013;27;20162;-82
2024/03/14 01:17:36;;;;;;;15.48;6.82;;;9.40;99.90;;;;;;5095471;27;20051;-81
2024/03/14 01:20:09;;;;;;;13.85;6.78;;;9.50;99.90;;;;;;5120679;27;20387;-83
2024/03/14 01:22:39;;;;;;;11.43;6.03;;;9.40;99.90;;;;;;5108355;27;20475;-83
2024/03/14 01:25:08;;;;;;;12.95;6.72;;;9.50;99.90;;;;;;5100625;27;20123;-83
2024/03/14 01:27:36;;;;;;;12.25;6.22;;;9.50;99.90;;;;;;5093439;28;20062;-82
2024/03/14 01:30:10;;;;;;;13.52;6.57;;;9.40;99.90;;;;;;5101215;27;20044;-82
2024/03/14 01:32:39;;;;;;;14.15;6.55;;;9.40;99.90;;;;;;5102045;27;20048;-81
2024/03/14 01:35:08;;;;;;;13.93;6.82;;;9.40;99.90;;;;;;5104830;27;20040;-84
2024/03/14 01:37:37;;;;;;;12.88;6.30;;;9.40;99.90;;;;;;5103549;27;20047;-82
2024/03/14 01:40:07;;;;;;;12.65;6.60;;;9.40;99.90;;;;;;5105991;27;20470;-83
2024/03/14 01:42:36;;;;;;;16.55;7.63;;;9.40;99.90;;;;;;5102480;27;20644;-83
2024/03/14 01:45:07;;;;;;;19.42;8.13;;;9.40;99.90;;;;;;5105955;27;20495;-84
2024/03/14 01:47:35;;;;;;;18.00;7.55;;;9.40;99.90;;;;;;5086078;27;20055;-84
2024/03/14 01:50:05;;;;;;;18.67;8.48;;;9.40;99.90;;;;;;5109646;27;20042;-84
2024/03/14 01:52:35;;;;;;;17.05;7.80;;;9.30;99.90;;;;;;5107823;27;20071;-83
2024/03/14 01:55:03;;;;;;;16.38;7.93;;;9.30;99.90;;;;;;5107768;27;20038;-84
2024/03/14 01:57:32;;;;;;;18.63;7.50;;;9.30;99.90;;;;;;5096593;27;20101;-83
2024/03/14 02:00:01;;;;;;;18.38;8.35;;;9.30;99.90;;;;;;5104030;27;20040;-84
2024/03/14 02:02:40;;;;;;;17.30;8.77;;;9.20;99.90;;;;;;5119042;27;20571;-82
2024/03/14 02:05:11;;;;;;;18.67;8.40;;;9.10;99.90;;;;;;5100076;27;20067;-85
2024/03/14 02:07:39;;;;;;;18.92;8.18;;;9.10;99.90;;;;;;5106125;27;21532;-83
2024/03/14 02:10:10;;;;;;;19.98;8.57;;;9.00;99.90;;;;;;5117530;27;20120;-85
2024/03/14 02:12:39;;;;;;;21.83;9.27;;;9.10;99.90;;;;;;5107908;27;20448;-84
2024/03/14 02:15:08;;;;;;;18.48;9.60;;;9.10;99.90;;;;;;5101034;27;20122;-83
2024/03/14 02:17:37;;;;;;;22.52;10.60;;;9.10;99.90;;;;;;5107553;27;20058;-84
2024/03/14 02:20:06;;;;;;;17.77;9.05;;;9.10;99.90;;;;;;5114742;27;20036;-84
2024/03/14 02:22:34;;;;;;;24.42;10.13;;;9.20;99.90;;;;;;5120382;27;20086;-85
2024/03/14 02:25:03;;;;;;;23.67;10.02;;;9.10;99.90;;;;;;5106717;28;20043;-84
2024/03/14 02:27:34;;;;;;;21.65;10.45;;;9.10;99.90;;;;;;5098686;27;20532;-85
2024/03/14 02:30:04;;;;;;;21.88;10.13;;;9.10;99.90;;;;;;5103699;27;20481;-82
2024/03/14 02:32:33;;;;;;;22.75;10.52;;;9.10;99.90;;;;;;5100484;28;20079;-82
2024/03/14 02:35:03;;;;;;;23.70;10.50;;;9.10;99.90;;;;;;5088849;27;20039;-84
2024/03/14 02:37:32;;;;;;;20.20;9.07;;;9.10;99.90;;;;;;5119858;27;20035;-85
2024/03/14 02:40:01;;;;;;;17.70;9.38;;;9.10;99.90;;;;;;5091872;27;20052;-83
2024/03/14 02:42:29;;;;;;;25.60;9.32;;;9.10;99.90;;;;;;5109098;28;20132;-85
2024/03/14 02:45:00;;;;;;;26.02;10.45;;;9.10;99.90;;;;;;5126238;27;20081;-86
2024/03/14 02:47:29;;;;;;;25.38;9.13;;;9.10;99.90;;;;;;5117883;27;20046;-85
2024/03/14 02:49:58;;;;;;;25.30;9.65;;;9.10;99.90;;;;;;5117849;27;20498;-83
2024/03/14 02:52:26;;;;;;;20.60;10.05;;;9.10;99.90;;;;;;5126020;27;20066;-83
2024/03/14 02:54:56;;;;;;;22.27;9.85;;;9.10;99.90;;;;;;5093283;27;20123;-82
2024/03/14 02:57:25;;;;;;;24.20;10.48;;;9.10;99.90;;;;;;5104668;27;20081;-83
2024/03/14 02:59:54;;;;;;;23.52;10.18;;;9.00;99.90;;;;;;5088706;27;20047;-84
2024/03/14 03:02:25;;;;;;;23.17;9.85;;;9.00;99.90;;;;;;5104910;27;20031;-84
2024/03/14 03:04:56;;;;;;;25.92;11.23;;;9.00;99.90;;;;;;5112893;27;20036;-84
2024/03/14 03:07:26;;;;;;;26.40;10.98;;;9.00;99.90;;;;;;5106658;27;20572;-83
2024/03/14 03:09:54;;;;;;;27.80;11.02;;;9.00;99.90;;;;;;5107686;27;20502;-85
2024/03/14 03:12:23;;;;;;;25.25;11.48;;;8.90;99.90;;;;;;5111093;27;20383;-84
2024/03/14 03:14:52;;;;;;;27.30;10.80;;;9.00;99.90;;;;;;5106375;27;20038;-83
2024/03/14 03:17:21;;;;;;;24.67;11.25;;;8.90;99.90;;;;;;5103837;27;20074;-83
2024/03/14 03:19:49;;;;;;;26.10;11.15;;;8.90;99.90;;;;;;5119394;27;20114;-83
2024/03/14 03:22:19;;;;;;;27.88;11.82;;;8.90;99.90;;;;;;5115584;27;20465;-84
2024/03/14 03:24:46;;;;;;;27.88;10.55;;;8.80;99.90;;;;;;5111402;27;20067;-85
2024/03/14 03:27:15;;;;;;;26.38;10.80;;;8.80;99.90;;;;;;5112009;27;20047;-86
2024/03/14 03:29:43;;;;;;;23.92;9.98;;;8.80;99.90;;;;;;5130306;27;20436;-85
2024/03/14 03:32:13;;;;;;;22.98;10.27;;;8.70;99.90;;;;;;5123178;27;20036;-85
2024/03/14 03:34:40;;;;;;;22.33;9.95;;;8.70;99.90;;;;;;5105447;27;20130;-85
2024/03/14 03:37:09;;;;;;;22.70;9.77;;;8.60;99.90;;;;;;5094669;27;20043;-85
2024/03/14 03:39:39;;;;;;;23.52;9.63;;;8.60;99.90;;;;;;5100469;27;20043;-83
2024/03/14 03:42:07;;;;;;;26.02;10.25;;;8.60;99.90;;;;;;5114769;27;20139;-81
2024/03/14 03:44:36;;;;;;;23.88;10.15;;;8.50;99.90;;;;;;5106838;27;20039;-84
2024/03/14 03:47:04;;;;;;;25.27;9.80;;;8.50;99.90;;;;;;5108246;27;20035;-85
2024/03/14 03:49:32;;;;;;;24.02;10.00;;;8.60;99.90;;;;;;5120514;27;20440;-83
2024/03/14 03:52:00;;;;;;;23.30;10.15;;;8.50;99.90;;;;;;5112052;27;20054;-85
2024/03/14 03:54:28;;;;;;;24.60;10.45;;;8.50;99.90;;;;;;5093690;27;20036;-81
2024/03/14 03:56:56;;;;;;;29.98;10.38;;;8.40;99.90;;;;;;5105246;27;20131;-84
2024/03/14 03:59:26;;;;;;;23.45;9.35;;;8.30;99.90;;;;;;5102870;27;20150;-86
2024/03/14 04:01:54;;;;;;;23.60;9.90;;;8.30;99.90;;;;;;5120422;27;20088;-85
2024/03/14 04:04:23;;;;;;;23.15;10.15;;;8.20;99.90;;;;;;5118453;27;20214;-84
2024/03/14 04:06:51;;;;;;;22.52;10.02;;;8.30;99.90;;;;;;5107260;27;20130;-82
2024/03/14 04:09:20;;;;;;;25.08;10.55;;;8.10;99.90;;;;;;5106303;27;20101;-84
2024/03/14 04:11:51;;;;;;;26.92;10.77;;;8.10;99.90;;;;;;5092306;28;20051;-79
2024/03/14 04:14:19;;;;;;;22.50;9.90;;;8.10;99.90;;;;;;5108609;27;20050;-81
2024/03/14 04:16:49;;;;;;;24.40;9.98;;;8.10;99.90;;;;;;5085389;28;20056;-83
2024/03/14 04:19:18;;;;;;;22.90;9.68;;;8.20;99.90;;;;;;5064565;28;20055;-82
2024/03/14 04:21:47;;;;;;;25.13;9.57;;;8.20;99.90;;;;;;5053547;28;20040;-81
2024/03/14 04:24:17;;;;;;;26.48;10.23;;;8.20;99.90;;;;;;5055163;28;20071;-82
2024/03/14 04:26:47;;;;;;;28.77;9.32;;;8.10;99.90;;;;;;5066199;28;20139;-83
2024/03/14 04:29:20;;;;;;;22.02;10.30;;;8.10;99.90;;;;;;5083299;28;20039;-84
2024/03/14 04:31:49;;;;;;;23.67;10.15;;;8.10;99.90;;;;;;5075427;28;20410;-84
2024/03/14 04:34:21;;;;;;;28.15;10.20;;;8.10;99.90;;;;;;5075356;28;20058;-83
2024/03/14 04:36:50;;;;;;;24.48;10.48;;;8.10;99.90;;;;;;5061878;28;20040;-84
2024/03/14 04:39:19;;;;;;;22.65;10.27;;;8.10;99.90;;;;;;5081836;28;20093;-84
2024/03/14 04:41:52;;;;;;;25.88;9.88;;;8.00;99.90;;;;;;5090891;28;20411;-83
2024/03/14 04:44:23;;;;;;;26.15;9.93;;;8.10;99.90;;;;;;5056794;28;20044;-83
2024/03/14 04:46:54;;;;;;;21.75;10.05;;;8.10;99.90;;;;;;5098358;28;20048;-83
2024/03/14 04:49:26;;;;;;;21.95;9.68;;;8.00;99.90;;;;;;5067169;28;20117;-82
2024/03/14 04:51:56;;;;;;;22.90;9.82;;;8.00;99.90;;;;;;5063878;28;20071;-83
2024/03/14 04:54:24;;;;;;;23.95;9.43;;;8.00;99.90;;;;;;5052396;28;20056;-83
2024/03/14 04:56:53;;;;;;;28.45;11.55;;;8.00;99.90;;;;;;5071373;27;20372;-81
2024/03/14 04:59:22;;;;;;;28.83;11.20;;;8.00;99.90;;;;;;5036033;28;20045;-82
2024/03/14 05:01:51;;;;;;;25.92;9.90;;;7.90;99.90;;;;;;5035368;28;20067;-82
2024/03/14 05:04:19;;;;;;;22.08;9.73;;;7.90;99.90;;;;;;5035089;28;20448;-82
2024/03/14 05:06:48;;;;;;;26.08;10.30;;;7.80;99.90;;;;;;5006295;28;20048;-79
2024/03/14 05:09:21;;;;;;;24.45;10.73;;;7.70;99.90;;;;;;5058837;28;20443;-80
2024/03/14 05:11:50;;;;;;;28.75;10.80;;;7.70;99.90;;;;;;5039713;28;20190;-81
2024/03/14 05:14:19;;;;;;;23.75;10.30;;;7.80;99.90;;;;;;5050606;28;20045;-80
2024/03/14 05:16:48;;;;;;;27.67;10.63;;;7.80;99.90;;;;;;5060745;28;20110;-81
2024/03/14 05:19:20;;;;;;;25.55;10.27;;;7.70;99.90;;;;;;5041414;28;20048;-80
2024/03/14 05:21:50;;;;;;;29.02;11.35;;;7.80;99.90;;;;;;5034051;28;20052;-81
2024/03/14 05:24:19;;;;;;;25.27;10.02;;;7.70;99.90;;;;;;5039174;28;20049;-80
2024/03/14 05:26:47;;;;;;;27.63;11.18;;;7.70;99.90;;;;;;5052077;28;20551;-81
2024/03/14 05:29:19;;;;;;;30.85;11.73;;;7.70;99.90;;;;;;5038932;28;20181;-79
2024/03/14 05:31:47;;;;;;;26.23;11.80;;;7.70;99.90;;;;;;5049017;28;20048;-80
2024/03/14 05:34:16;;;;;;;26.65;11.00;;;7.70;99.90;;;;;;5078716;28;20051;-79
2024/03/14 05:36:45;;;;;;;28.38;10.45;;;7.70;99.90;;;;;;5099695;27;20138;-79
2024/03/14 05:39:14;;;;;;;29.38;10.73;;;7.60;99.90;;;;;;5132158;27;20139;-80
2024/03/14 05:41:43;;;;;;;27.88;11.82;;;7.60;99.90;;;;;;5117441;27;20486;-79
2024/03/14 05:44:12;;;;;;;24.48;10.68;;;7.60;99.90;;;;;;5117359;27;20055;-79
2024/03/14 05:46:42;;;;;;;27.90;10.43;;;7.60;99.90;;;;;;5118535;27;20538;-79
2024/03/14 05:49:10;;;;;;;27.98;10.82;;;7.60;99.90;;;;;;5135556;27;20038;-80
2024/03/14 05:51:39;;;;;;;26.65;11.57;;;7.60;99.90;;;;;;5118338;27;20047;-79
2024/03/14 05:54:07;;;;;;;36.50;12.77;;;7.60;99.90;;;;;;5117788;27;20035;-80
2024/03/14 05:56:36;;;;;;;31.17;12.43;;;7.60;99.90;;;;;;5117365;27;20047;-80
2024/03/14 05:59:05;;;;;;;28.25;10.68;;;7.60;99.90;;;;;;5118642;27;20084;-79
2024/03/14 06:01:35;;;;;;;26.38;11.55;;;7.50;99.90;;;;;;5119255;27;20494;-79
2024/03/14 06:04:08;;;;;;;28.75;11.00;;;7.50;99.90;;;;;;5136445;27;20035;-79
2024/03/14 06:06:37;;;;;;;27.08;10.93;;;7.50;99.90;;;;;;5120153;27;20545;-79
2024/03/14 06:09:14;;;;;;;30.17;11.85;;;7.50;99.90;;;;;;5136317;27;20077;-79
2024/03/14 06:11:46;;;;;;;28.48;11.23;;;7.50;99.90;;;;;;5121850;28;20043;-79
2024/03/14 06:14:25;;;;;;;32.60;10.93;;;7.50;99.90;;;;;;5126319;28;20066;-79
2024/03/14 06:16:59;;;;;;;28.63;12.25;;;7.50;99.90;;;;;;5107051;28;20526;-80
2024/03/14 06:19:39;;;;;;;29.23;11.30;;;7.40;99.90;;;;;;5124072;28;20039;-78
2024/03/14 06:22:14;;;;;;;30.40;12.05;;;7.40;99.90;;;;;;5107606;28;20070;-79
2024/03/14 06:24:47;;;;;;;28.88;11.52;;;7.50;99.90;;;;;;5106655;28;20114;-78
2024/03/14 06:27:20;;;;;;;31.50;11.18;;;7.50;99.90;;;;;;5123224;28;20101;-78
2024/03/14 06:29:57;;;;;;;31.35;12.45;;;7.50;99.90;;;;;;5093649;28;20047;-79
2024/03/14 06:32:33;;;;;;;33.20;14.00;;;7.80;99.90;;;;;;5108744;28;20069;-79
2024/03/14 06:35:21;;;;;;;33.40;12.55;;;7.50;99.90;;;;;;5117887;28;20051;-79
2024/03/14 06:37:52;;;;;;;29.77;12.65;;;7.50;99.90;;;;;;5070400;28;20516;-79
2024/03/14 06:40:23;;;;;;;33.00;13.35;;;7.60;99.90;;;;;;5035538;28;20551;-78
2024/03/14 06:42:57;;;;;;;33.83;13.13;;;7.60;99.90;;;;;;5052159;28;20045;-79
2024/03/14 06:45:34;;;;;;;28.02;13.60;;;7.60;99.90;;;;;;5007625;28;20204;-79
2024/03/14 06:52:15;;;;;;;32.17;12.30;;;7.70;99.90;;;;;;4929400;29;20067;-79
2024/03/14 06:54:44;;;;;;;28.95;13.27;;;7.80;99.90;;;;;;4897723;29;20060;-79
2024/03/14 06:57:14;;;;;;;35.47;13.90;;;7.90;99.90;;;;;;4895699;29;20083;-79
2024/03/14 06:59:48;;;;;;;32.08;12.70;;;7.90;99.90;;;;;;4892514;29;20056;-79
2024/03/14 07:02:19;;;;;;;34.72;12.98;;;8.00;99.90;;;;;;4875661;29;20448;-79
2024/03/14 07:04:48;;;;;;;32.13;13.80;;;8.00;99.90;;;;;;4888339;29;20059;-80
2024/03/14 07:07:17;;;;;;;34.63;12.60;;;8.00;99.90;;;;;;4888063;29;20432;-79
2024/03/14 07:09:55;;;;;;;37.08;12.95;;;8.10;99.90;;;;;;4918659;29;20099;-82
2024/03/14 07:12:23;;;;;;;36.47;12.88;;;8.00;99.90;;;;;;4917956;29;20432;-82
2024/03/14 07:14:52;;;;;;;31.52;11.98;;;8.10;99.90;;;;;;4888211;29;20052;-82
2024/03/14 07:17:20;;;;;;;30.92;11.60;;;8.10;99.90;;;;;;4965229;28;20201;-82
2024/03/14 07:19:49;;;;;;;27.83;11.88;;;8.30;99.90;;;;;;4978655;28;20516;-83
2024/03/14 07:22:18;;;;;;;27.58;11.40;;;8.40;99.90;;;;;;4972483;28;20049;-82
2024/03/14 07:24:46;;;;;;;30.15;11.43;;;8.40;99.90;;;;;;5020927;28;20068;-82
2024/03/14 07:27:16;;;;;;;30.35;10.98;;;8.40;99.90;;;;;;5049802;28;20120;-80
2024/03/14 07:29:47;;;;;;;24.13;11.18;;;8.50;99.90;;;;;;5019020;28;20164;-84
2024/03/14 07:32:15;;;;;;;29.65;11.40;;;8.50;99.90;;;;;;4977249;28;20040;-85
2024/03/14 07:34:46;;;;;;;33.08;12.63;;;8.70;99.90;;;;;;5060140;27;20051;-85
2024/03/14 07:37:15;;;;;;;25.80;10.98;;;8.80;99.90;;;;;;5113138;27;20096;-84
2024/03/14 07:39:44;;;;;;;25.58;11.15;;;8.90;99.90;;;;;;5113716;27;20071;-84
2024/03/14 07:42:13;;;;;;;22.20;9.77;;;9.00;99.90;;;;;;5109327;27;20509;-85
2024/03/14 07:44:45;;;;;;;25.10;10.38;;;8.90;99.90;;;;;;5095620;27;20039;-86
2024/03/14 07:47:19;;;;;;;28.05;10.20;;;9.00;99.90;;;;;;5112802;27;20064;-84
2024/03/14 07:49:51;;;;;;;27.90;11.13;;;9.10;99.90;;;;;;5120552;27;20050;-85
2024/03/14 07:52:20;;;;;;;25.55;11.05;;;9.20;99.90;;;;;;5113236;27;20899;-86
2024/03/14 07:54:49;;;;;;;27.02;11.02;;;9.30;99.90;;;;;;5122019;27;20135;-86
2024/03/14 07:57:17;;;;;;;22.55;9.90;;;9.30;99.90;;;;;;5107615;27;20111;-83
2024/03/14 07:59:46;;;;;;;25.73;10.63;;;9.30;99.90;;;;;;5126659;27;20182;-86
2024/03/14 08:02:15;;;;;;;26.00;11.93;;;9.30;99.90;;;;;;5107954;27;20396;-86
2024/03/14 08:04:44;;;;;;;28.85;12.00;;;9.40;99.90;;;;;;5098593;27;20044;-84
2024/03/14 08:07:16;;;;;;;26.88;10.63;;;9.40;99.90;;;;;;5102774;27;20043;-86
2024/03/14 08:09:44;;;;;;;23.45;10.60;;;9.50;99.90;;;;;;5102408;27;20096;-84
2024/03/14 08:12:13;;;;;;;21.95;9.30;;;9.50;99.90;;;;;;5104349;27;20062;-85
2024/03/14 08:14:44;;;;;;;28.20;11.13;;;9.60;99.90;;;;;;5108185;27;20047;-83
2024/03/14 08:17:13;;;;;;;22.83;10.07;;;9.60;99.90;;;;;;5091353;27;20043;-83
2024/03/14 08:19:42;;;;;;;21.27;9.52;;;9.70;99.90;;;;;;5087693;27;20047;-84
2024/03/14 08:22:10;;;;;;;21.83;9.57;;;9.70;99.90;;;;;;5106311;27;20156;-84
2024/03/14 08:24:46;;;;;;;21.77;11.13;;;9.70;99.90;;;;;;5117694;27;20047;-84
2024/03/14 08:27:15;;;;;;;27.95;11.55;;;9.80;99.90;;;;;;5104693;27;20050;-84
2024/03/14 08:29:46;;;;;;;22.27;9.80;;;9.90;99.90;;;;;;5107325;27;20520;-83
2024/03/14 08:32:16;;;;;;;22.13;9.45;;;9.90;99.90;;;;;;5105628;27;20040;-83
2024/03/14 08:34:44;;;;;;;23.23;9.95;;;10.00;99.90;;;;;;5098556;27;20074;-83
2024/03/14 08:37:13;;;;;;;23.85;10.63;;;10.10;99.90;;;;;;5116293;27;20125;-84
2024/03/14 08:39:42;;;;;;;24.30;10.48;;;10.10;99.90;;;;;;5099599;27;20043;-83
2024/03/14 08:42:10;;;;;;;21.55;9.88;;;10.20;99.50;;;;;;5106343;27;20567;-84
2024/03/14 08:44:39;;;;;;;21.95;9.15;;;10.20;98.70;;;;;;5121535;27;20043;-83
2024/03/14 08:47:09;;;;;;;18.85;7.18;;;10.30;97.50;;;;;;5119648;27;20043;-82
2024/03/14 08:49:38;;;;;;;21.42;8.82;;;10.40;97.00;;;;;;5114580;27;20447;-84
2024/03/14 08:52:07;;;;;;;19.90;8.40;;;10.40;97.40;;;;;;5106277;27;20055;-82
2024/03/14 08:54:35;;;;;;;17.02;7.78;;;10.40;96.60;;;;;;5110780;27;20065;-84
2024/03/14 08:57:04;;;;;;;15.23;7.13;;;10.50;96.20;;;;;;5108055;27;20039;-83
2024/03/14 08:59:35;;;;;;;21.90;9.30;;;10.60;96.60;;;;;;5112882;27;20047;-84
2024/03/14 09:02:08;;;;;;;18.63;8.43;;;10.60;95.90;;;;;;5108828;27;20046;-83
2024/03/14 09:04:36;;;;;;;19.57;8.40;;;10.70;96.00;;;;;;5094349;27;20047;-84
2024/03/14 09:07:06;;;;;;;18.23;8.10;;;10.90;95.90;;;;;;5107416;27;20066;-83
2024/03/14 09:09:35;;;;;;;17.48;8.35;;;11.00;94.80;;;;;;5105268;27;20522;-83
2024/03/14 09:12:13;;;;;;;18.05;8.95;;;11.00;95.20;;;;;;5114119;27;20514;-83
2024/03/14 09:14:45;;;;;;;18.08;7.13;;;11.00;96.00;;;;;;5099316;27;20466;-84
2024/03/14 09:17:13;;;;;;;18.35;7.78;;;11.00;96.70;;;;;;5112725;27;20134;-83
2024/03/14 09:19:44;;;;;;;19.75;8.30;;;11.00;95.90;;;;;;5114426;27;20055;-82
2024/03/14 09:22:12;;;;;;;19.77;7.72;;;11.00;96.10;;;;;;5107088;27;20061;-82
2024/03/14 09:24:41;;;;;;;16.17;7.82;;;10.90;95.90;;;;;;5110616;27;20555;-82
2024/03/14 09:27:11;;;;;;;16.90;7.75;;;10.90;95.90;;;;;;5114952;27;20039;-83
2024/03/14 09:29:40;;;;;;;13.32;6.97;;;11.00;95.50;;;;;;5094915;27;20460;-82
2024/03/14 09:32:08;;;;;;;14.95;7.43;;;11.00;94.20;;;;;;5105568;27;20075;-83
2024/03/14 09:34:38;;;;;;;15.77;7.32;;;11.10;94.80;;;;;;5124477;27;20047;-84
2024/03/14 09:37:06;;;;;;;15.90;7.43;;;11.30;93.50;;;;;;5106133;27;20070;-83
2024/03/14 09:39:37;;;;;;;19.50;8.32;;;11.60;94.70;;;;;;5103553;27;20426;-83
2024/03/14 09:42:06;;;;;;;17.52;8.13;;;11.60;94.40;;;;;;5102378;27;20047;-83
2024/03/14 09:44:35;;;;;;;16.45;8.07;;;11.70;92.90;;;;;;5107395;27;20063;-82
2024/03/14 09:47:05;;;;;;;18.38;8.23;;;11.70;92.90;;;;;;5116545;27;20043;-82
2024/03/14 09:49:36;;;;;;;16.17;8.50;;;11.60;92.50;;;;;;5103015;27;20079;-84
2024/03/14 09:52:05;;;;;;;14.85;8.20;;;11.70;93.30;;;;;;5090290;27;20043;-84
2024/03/14 09:54:33;;;;;;;16.67;7.55;;;11.70;93.60;;;;;;5125426;27;20519;-84
2024/03/14 09:57:02;;;;;;;18.17;7.28;;;11.80;93.90;;;;;;5108315;27;20518;-83
2024/03/14 09:59:31;;;;;;;18.00;8.07;;;12.10;92.60;;;;;;5107278;27;20394;-83
2024/03/14 10:01:59;;;;;;;18.50;7.88;;;12.20;92.30;;;;;;5124324;27;20391;-82
2024/03/14 10:04:28;;;;;;;17.60;8.88;;;12.40;93.50;;;;;;5118344;27;20583;-84
2024/03/14 10:06:58;;;;;;;18.80;7.40;;;12.50;92.00;;;;;;5099731;27;20091;-83
2024/03/14 10:09:29;;;;;;;16.10;7.82;;;12.90;93.40;;;;;;5125547;27;20059;-83
2024/03/14 10:12:01;;;;;;;14.55;6.50;;;13.00;91.70;;;;;;5110016;27;20035;-83
2024/03/14 10:14:32;;;;;;;18.92;8.02;;;13.00;91.40;;;;;;5092229;28;20039;-82
2024/03/14 10:17:01;;;;;;;15.18;7.53;;;13.10;90.80;;;;;;5104369;27;20457;-82
2024/03/14 10:19:30;;;;;;;14.75;7.35;;;13.00;90.40;;;;;;5080699;27;20039;-81
2024/03/14 10:22:01;;;;;;;15.77;7.82;;;12.90;91.20;;;;;;5088731;28;20521;-83
2024/03/14 10:24:30;;;;;;;17.52;7.53;;;12.90;89.80;;;;;;5103227;27;20063;-83
2024/03/14 10:27:00;;;;;;;18.30;8.27;;;13.10;91.20;;;;;;5098871;27;20043;-79
2024/03/14 10:29:33;;;;;;;;;;;13.10;91.20;;;;;;5120583;27;20043;-82
2024/03/14 10:32:01;;;;;;;17.35;7.72;;;13.20;89.90;;;;;;5107607;28;19923;-82
2024/03/14 10:34:32;;;;;;;17.25;7.95;;;13.30;89.90;;;;;;5103865;28;20047;-82
2024/03/14 10:37:01;;;;;;;16.52;7.47;;;13.30;90.60;;;;;;5092172;28;20040;-79
2024/03/14 10:39:29;;;;;;;15.75;7.82;;;13.40;89.60;;;;;;5107537;28;20475;-81
2024/03/14 10:41:58;;;;;;;16.92;8.02;;;13.50;90.70;;;;;;5103719;27;20046;-82
2024/03/14 10:44:26;;;;;;;20.00;8.77;;;13.40;89.40;;;;;;5105582;28;20066;-76
2024/03/14 10:46:55;;;;;;;18.85;8.40;;;13.30;88.30;;;;;;5103867;28;20043;-82
2024/03/14 10:49:23;;;;;;;18.23;7.95;;;13.40;87.50;;;;;;5107285;27;20046;-81
2024/03/14 10:51:53;;;;;;;17.27;7.88;;;13.30;89.10;;;;;;5108338;27;20064;-79
2024/03/14 10:54:26;;;;;;;18.08;6.97;;;13.60;90.30;;;;;;5100522;28;20039;-80
2024/03/14 10:56:54;;;;;;;;;;;13.50;86.50;;;;;;5109509;27;20505;-78
2024/03/14 10:59:23;;;;;;;16.17;7.50;;;13.80;88.70;;;;;;5108845;27;19926;-82
2024/03/14 11:01:53;;;;;;;16.85;7.35;;;13.60;87.00;;;;;;5097989;27;20486;-80
2024/03/14 11:04:23;;;;;;;15.57;7.78;;;13.70;87.80;;;;;;5102644;27;20042;-78
2024/03/14 11:06:53;;;;;;;17.95;8.30;;;13.70;86.70;;;;;;5093224;27;20073;-79
2024/03/14 11:09:22;;;;;;;18.45;8.48;;;13.60;85.50;;;;;;5111421;27;20043;-80
2024/03/14 11:11:52;;;;;;;17.85;8.85;;;13.60;84.70;;;;;;5101824;27;20517;-77
2024/03/14 11:14:21;;;;;;;15.43;7.55;;;13.70;86.50;;;;;;5100655;28;20051;-81
2024/03/14 11:16:49;;;;;;;15.48;8.20;;;13.90;87.10;;;;;;5101632;27;20047;-77
2024/03/14 11:19:18;;;;;;;16.42;7.95;;;14.00;85.10;;;;;;5120965;27;20036;-78
2024/03/14 11:21:47;;;;;;;15.90;7.45;;;14.00;84.10;;;;;;5110308;27;20043;-77
2024/03/14 11:24:17;;;;;;;14.45;6.13;;;14.20;87.10;;;;;;5108394;27;20122;-75
2024/03/14 11:26:46;;;;;;;17.67;8.02;;;14.30;87.90;;;;;;5108875;27;20502;-77
2024/03/14 11:29:17;;;;;;;17.60;7.40;;;14.10;84.60;;;;;;5090356;27;20731;-77
2024/03/14 11:31:46;;;;;;;17.35;9.02;;;14.20;86.40;;;;;;5103110;27;20058;-80
2024/03/14 11:34:16;;;;;;;16.80;7.75;;;14.30;84.00;;;;;;5116105;27;20126;-76
2024/03/14 11:36:46;;;;;;;15.10;7.82;;;14.20;84.10;;;;;;5107235;27;20425;-82
2024/03/14 11:39:16;;;;;;;17.42;8.00;;;14.30;83.50;;;;;;5122600;27;20075;-74
2024/03/14 11:41:46;;;;;;;16.25;7.97;;;14.40;83.70;;;;;;5119658;27;20051;-78
2024/03/14 11:44:15;;;;;;;16.92;7.95;;;14.40;83.60;;;;;;5113748;27;20413;-77
2024/03/14 11:46:44;;;;;;;18.42;8.10;;;14.50;83.10;;;;;;5106537;27;20051;-78
2024/03/14 11:49:16;;;;;;;18.00;9.18;;;14.50;82.80;;;;;;5108516;27;20440;-78
2024/03/14 11:51:47;;;;;;;16.98;8.60;;;14.40;82.30;;;;;;5087556;27;20071;-77
2024/03/14 11:54:18;;;;;;;16.58;8.07;;;14.60;82.90;;;;;;5113753;27;20116;-75
2024/03/14 11:56:47;;;;;;;18.52;7.45;;;14.50;82.40;;;;;;5100658;27;20055;-77
2024/03/14 11:59:15;;;;;;;17.35;8.48;;;14.50;82.40;;;;;;5109206;27;20173;-76
2024/03/14 12:01:44;;;;;;;14.05;7.85;;;14.60;80.20;;;;;;5101156;27;20495;-73
2024/03/14 12:04:18;;;;;;;14.65;7.57;;;14.70;81.80;;;;;;5100559;27;20200;-74
2024/03/14 12:06:47;;;;;;;17.65;7.75;;;14.60;80.30;;;;;;5090487;27;20405;-75
2024/03/14 12:09:21;;;;;;;18.70;7.50;;;14.70;80.30;;;;;;5105727;27;20122;-77
2024/03/14 12:11:50;;;;;;;17.73;8.75;;;14.80;81.30;;;;;;5107062;27;20529;-78
2024/03/14 12:14:19;;;;;;;17.48;9.35;;;14.60;79.40;;;;;;5101991;27;21704;-77
2024/03/14 12:16:48;;;;;;;14.40;8.02;;;14.40;77.60;;;;;;5105959;27;20439;-76
2024/03/14 12:19:17;;;;;;;16.98;7.40;;;14.60;80.60;;;;;;5104184;27;20035;-75
2024/03/14 12:21:48;;;;;;;15.00;7.53;;;14.70;78.00;;;;;;5119070;27;20047;-77
2024/03/14 12:24:16;;;;;;;17.10;7.57;;;14.80;79.80;;;;;;5086914;27;20559;-77
2024/03/14 12:26:45;;;;;;;17.17;7.90;;;14.60;77.20;;;;;;5103841;27;20071;-74
2024/03/14 12:29:13;;;;;;;15.93;7.90;;;14.70;77.10;;;;;;5105000;27;20051;-75
2024/03/14 12:31:42;;;;;;;13.55;7.55;;;14.70;78.20;;;;;;5106135;27;20074;-77
2024/03/14 12:34:11;;;;;;;14.63;7.97;;;14.70;78.60;;;;;;5097301;27;20380;-78
2024/03/14 12:36:39;;;;;;;15.63;7.60;;;14.70;77.60;;;;;;5098036;28;20477;-75
2024/03/14 12:39:08;;;;;;;13.82;7.38;;;14.90;79.40;;;;;;5101651;27;20562;-74
2024/03/14 12:41:38;;;;;;;17.98;8.13;;;15.00;81.00;;;;;;5124426;27;20035;-75
2024/03/14 12:44:06;;;;;;;14.23;6.63;;;14.90;78.10;;;;;;5110379;27;20100;-74
2024/03/14 12:46:35;;;;;;;15.63;7.32;;;14.80;79.10;;;;;;5112397;27;20034;-74
2024/03/14 12:49:07;;;;;;;13.77;6.10;;;14.80;77.90;;;;;;5109607;27;20134;-73
2024/03/14 12:51:36;;;;;;;14.20;6.68;;;14.90;78.40;;;;;;5105304;27;20093;-73
2024/03/14 12:54:04;;;;;;;12.68;6.32;;;15.00;77.50;;;;;;5106833;27;20562;-74
2024/03/14 12:56:34;;;;;;;13.30;6.80;;;14.70;77.80;;;;;;5086474;27;20137;-75